createdAt,value
2022-12-11T00:00:24.982Z,0.50
2022-12-11T00:02:51.799Z,0.50
2022-12-11T00:05:18.681Z,0.50
2022-12-11T00:07:45.370Z,0.50
2022-12-11T00:10:12.050Z,0.50
2022-12-11T00:12:38.586Z,0.54
2022-12-11T00:15:05.935Z,0.60
2022-12-11T00:17:32.491Z,0.60
2022-12-11T00:19:59.086Z,0.50
2022-12-11T00:22:25.649Z,0.60
2022-12-11T00:24:52.261Z,0.60
2022-12-11T00:27:18.847Z,0.70
2022-12-11T00:29:45.580Z,0.60
2022-12-11T00:32:12.223Z,0.60
2022-12-11T00:34:39.132Z,0.68
2022-12-11T00:37:06.950Z,0.60
2022-12-11T00:39:33.719Z,0.60
2022-12-11T00:42:00.357Z,0.60
2022-12-11T00:44:26.935Z,0.56
2022-12-11T00:46:53.651Z,0.60
2022-12-11T00:49:20.286Z,0.60
2022-12-11T00:51:46.912Z,0.52
2022-12-11T00:54:13.513Z,0.60
2022-12-11T00:56:40.087Z,0.60
2022-12-11T00:59:06.758Z,0.60
2022-12-11T01:01:33.489Z,0.60
2022-12-11T01:04:00.469Z,0.60
2022-12-11T01:06:28.527Z,0.60
2022-12-11T01:09:16.096Z,0.56
2022-12-11T01:11:43.446Z,0.50
2022-12-11T01:14:11.750Z,0.50
2022-12-11T01:16:38.730Z,0.50
2022-12-11T01:19:05.686Z,0.50
2022-12-11T01:21:32.455Z,0.50
2022-12-11T01:23:59.169Z,0.48
2022-12-11T01:26:26.000Z,0.40
2022-12-11T01:28:52.834Z,0.30
2022-12-11T01:31:22.301Z,0.30
2022-12-11T01:33:49.321Z,0.30
2022-12-11T01:36:19.953Z,0.24
2022-12-11T01:38:48.652Z,0.30
2022-12-11T01:41:18.093Z,0.30
2022-12-11T01:44:28.919Z,0.40
2022-12-11T01:46:55.913Z,0.50
2022-12-11T01:49:26.399Z,0.60
2022-12-11T01:52:22.087Z,0.68
2022-12-11T01:54:51.447Z,0.70
2022-12-11T01:57:18.050Z,0.80
2022-12-11T01:59:47.263Z,0.70
2022-12-11T02:02:30.055Z,0.60
2022-12-11T02:04:57.005Z,0.60
2022-12-11T02:07:24.123Z,0.60
2022-12-11T02:09:50.980Z,0.60
2022-12-11T02:12:34.550Z,0.60
2022-12-11T02:15:11.409Z,0.60
2022-12-11T02:17:45.338Z,0.60
2022-12-11T02:20:30.647Z,0.50
2022-12-11T02:23:12.735Z,0.42
2022-12-11T02:26:25.635Z,0.40
2022-12-11T02:29:07.543Z,0.50
2022-12-11T02:32:16.602Z,0.40
2022-12-11T02:34:55.467Z,0.40
2022-12-11T02:37:25.137Z,0.40
2022-12-11T02:39:55.105Z,0.40
2022-12-11T02:42:23.527Z,0.50
2022-12-11T02:44:51.766Z,0.40
2022-12-11T02:47:21.187Z,0.40
2022-12-11T02:49:50.471Z,0.42
2022-12-11T02:52:22.160Z,0.40
2022-12-11T02:54:51.620Z,0.40
2022-12-11T02:57:28.993Z,0.40
2022-12-11T02:59:55.709Z,0.30
2022-12-11T03:02:22.684Z,0.30
2022-12-11T03:04:49.447Z,0.30
2022-12-11T03:07:26.331Z,0.38
2022-12-11T03:09:54.217Z,0.40
2022-12-11T03:12:34.561Z,0.40
2022-12-11T03:15:06.290Z,0.40
2022-12-11T03:17:50.709Z,0.40
2022-12-11T03:20:33.590Z,0.40
2022-12-11T03:23:41.145Z,0.36
2022-12-11T03:26:15.299Z,0.40
2022-12-11T03:28:59.177Z,0.40
2022-12-11T03:31:39.759Z,0.30
2022-12-11T03:34:25.979Z,0.30
2022-12-11T03:36:56.589Z,0.30
2022-12-11T03:39:33.293Z,0.30
2022-12-11T03:42:03.635Z,0.22
2022-12-11T03:44:33.830Z,0.30
2022-12-11T03:47:04.682Z,0.34
2022-12-11T03:49:37.276Z,0.30
2022-12-11T03:52:06.577Z,0.30
2022-12-11T03:54:35.395Z,0.20
2022-12-11T03:57:05.054Z,0.20
2022-12-11T03:59:31.677Z,0.12
2022-12-11T04:01:58.598Z,0.16
2022-12-11T04:04:25.791Z,0.20
2022-12-11T04:06:52.559Z,0.20
2022-12-11T04:09:19.376Z,0.20
2022-12-11T04:11:46.125Z,0.20
2022-12-11T04:14:33.726Z,0.20
2022-12-11T04:17:00.955Z,0.20
2022-12-11T04:19:46.441Z,0.10
2022-12-11T04:22:15.547Z,0.10
2022-12-11T04:24:42.597Z,0.10
2022-12-11T04:27:09.396Z,0.00
2022-12-11T04:29:35.971Z,-0.04
2022-12-11T04:32:02.448Z,-0.10
2022-12-11T04:34:29.407Z,0.00
2022-12-11T04:36:55.939Z,0.00
2022-12-11T04:39:22.492Z,0.00
2022-12-11T04:41:49.206Z,0.00
2022-12-11T04:44:15.859Z,0.00
2022-12-11T04:46:42.655Z,0.00
2022-12-11T04:49:10.121Z,0.00
2022-12-11T04:51:36.779Z,0.00
2022-12-11T04:54:03.458Z,-0.10
2022-12-11T04:56:30.034Z,-0.10
2022-12-11T04:58:56.961Z,-0.10
2022-12-11T05:01:23.914Z,0.00
2022-12-11T05:03:51.086Z,0.00
2022-12-11T05:06:17.903Z,0.00
2022-12-11T05:08:45.567Z,0.00
2022-12-11T05:11:15.821Z,0.00
2022-12-11T05:13:44.199Z,0.10
2022-12-11T05:16:15.770Z,0.12
2022-12-11T05:18:43.005Z,0.20
2022-12-11T05:21:12.919Z,0.16
2022-12-11T05:23:39.850Z,0.20
2022-12-11T05:26:13.475Z,0.16
2022-12-11T05:28:42.040Z,0.20
2022-12-11T05:31:17.625Z,0.18
2022-12-11T05:33:45.651Z,0.18
2022-12-11T05:36:18.258Z,0.20
2022-12-11T05:38:45.491Z,0.30
2022-12-11T05:41:16.194Z,0.22
2022-12-11T05:43:42.927Z,0.30
2022-12-11T05:46:15.054Z,0.30
2022-12-11T05:48:43.960Z,0.30
2022-12-11T05:51:11.724Z,0.30
2022-12-11T05:53:40.588Z,0.30
2022-12-11T05:56:12.661Z,0.40
2022-12-11T05:58:40.392Z,0.40
2022-12-11T06:01:11.177Z,0.40
2022-12-11T06:03:38.072Z,0.50
2022-12-11T06:06:07.212Z,0.50
2022-12-11T06:08:35.044Z,0.50
2022-12-11T06:11:02.141Z,0.50
2022-12-11T06:13:28.922Z,0.50
2022-12-11T06:15:55.727Z,0.50
2022-12-11T06:18:22.375Z,0.50
2022-12-11T06:20:48.995Z,0.50
2022-12-11T06:23:15.511Z,0.50
2022-12-11T06:25:42.174Z,0.50
2022-12-11T06:28:08.824Z,0.50
2022-12-11T06:30:38.758Z,0.50
2022-12-11T06:33:06.880Z,0.52
2022-12-11T06:35:38.719Z,0.50
2022-12-11T06:38:08.667Z,0.54
2022-12-11T06:40:35.216Z,0.60
2022-12-11T06:43:01.754Z,0.60
2022-12-11T06:45:28.448Z,0.52
2022-12-11T06:47:55.862Z,0.50
2022-12-11T06:50:22.458Z,0.40
2022-12-11T06:52:49.015Z,0.40
2022-12-11T06:55:15.667Z,0.40
2022-12-11T06:57:42.344Z,0.40
2022-12-11T07:00:10.059Z,0.50
2022-12-11T07:02:36.682Z,0.44
2022-12-11T07:05:03.766Z,0.46
2022-12-11T07:07:30.469Z,0.50
2022-12-11T07:09:57.094Z,0.50
2022-12-11T07:12:23.917Z,0.48
2022-12-11T07:14:50.439Z,0.42
2022-12-11T07:17:17.026Z,0.48
2022-12-11T07:19:43.786Z,0.50
2022-12-11T07:22:10.333Z,0.50
2022-12-11T07:24:36.947Z,0.50
2022-12-11T07:27:04.729Z,0.42
2022-12-11T07:29:31.421Z,0.48
2022-12-11T07:31:58.187Z,0.50
2022-12-11T07:34:24.963Z,0.50
2022-12-11T07:36:51.663Z,0.50
2022-12-11T07:39:18.368Z,0.40
2022-12-11T07:41:46.003Z,0.40
2022-12-11T07:44:12.719Z,0.40
2022-12-11T07:46:39.526Z,0.40
2022-12-11T07:49:07.063Z,0.40
2022-12-11T07:51:37.622Z,0.46
2022-12-11T07:54:08.629Z,0.50
2022-12-11T07:56:35.263Z,0.50
2022-12-11T07:59:05.913Z,0.50
2022-12-11T08:01:36.468Z,0.56
2022-12-11T08:04:06.887Z,0.60
2022-12-11T08:06:37.875Z,0.70
2022-12-11T08:09:17.470Z,0.70
2022-12-11T08:11:51.155Z,0.80
2022-12-11T08:14:18.556Z,0.80
2022-12-11T08:16:45.168Z,0.80
2022-12-11T08:19:13.281Z,0.80
2022-12-11T08:21:40.532Z,0.80
2022-12-11T08:24:09.037Z,0.82
2022-12-11T08:26:36.553Z,0.90
2022-12-11T08:29:03.441Z,0.90
2022-12-11T08:31:30.396Z,0.90
2022-12-11T08:33:57.400Z,1.00
2022-12-11T08:36:25.102Z,1.10
2022-12-11T08:38:52.511Z,1.10
2022-12-11T08:41:26.836Z,1.02
2022-12-11T08:43:57.662Z,1.10
2022-12-11T08:46:32.419Z,1.20
2022-12-11T08:49:00.232Z,1.20
2022-12-11T08:51:29.575Z,1.20
2022-12-11T08:53:59.888Z,1.20
2022-12-11T08:56:28.194Z,1.20
2022-12-11T08:58:54.780Z,1.20
2022-12-11T09:01:25.421Z,1.30
2022-12-11T09:03:54.957Z,1.32
2022-12-11T09:06:24.558Z,1.40
2022-12-11T09:08:53.539Z,1.30
2022-12-11T09:11:29.051Z,1.30
2022-12-11T09:13:55.981Z,1.36
2022-12-11T09:16:26.754Z,1.40
2022-12-11T09:18:57.333Z,1.50
2022-12-11T09:21:28.600Z,1.50
2022-12-11T09:24:01.171Z,1.50
2022-12-11T09:26:30.237Z,1.60
2022-12-11T09:28:57.922Z,1.60
2022-12-11T09:31:30.205Z,1.50
2022-12-11T09:34:04.143Z,1.50
2022-12-11T09:36:31.194Z,1.40
2022-12-11T09:39:03.845Z,1.30
2022-12-11T09:41:49.964Z,1.40
2022-12-11T09:44:26.933Z,1.40
2022-12-11T09:46:53.872Z,1.40
2022-12-11T09:49:36.364Z,1.44
2022-12-11T09:52:29.595Z,1.50
2022-12-11T09:55:02.494Z,1.60
2022-12-11T09:57:57.244Z,1.40
2022-12-11T10:01:14.260Z,1.70
2022-12-11T10:04:19.759Z,1.90
2022-12-11T10:07:07.336Z,2.10
2022-12-11T10:10:12.808Z,2.10
2022-12-11T10:13:25.309Z,2.22
2022-12-11T10:16:04.732Z,2.40
2022-12-11T10:18:33.955Z,2.50
2022-12-11T10:21:02.619Z,2.60
2022-12-11T10:23:44.907Z,2.70
2022-12-11T10:26:20.688Z,2.42
2022-12-11T10:28:47.661Z,2.40
2022-12-11T10:31:21.521Z,2.30
2022-12-11T10:34:04.678Z,2.30
2022-12-11T10:36:39.129Z,2.54
2022-12-11T10:39:19.930Z,2.70
2022-12-11T10:41:49.970Z,2.70
2022-12-11T10:44:27.899Z,2.60
2022-12-11T10:47:13.963Z,2.60
2022-12-11T10:50:02.339Z,2.50
2022-12-11T10:52:42.716Z,2.20
2022-12-11T10:55:29.503Z,2.00
2022-12-11T10:58:03.873Z,2.04
2022-12-11T11:00:40.605Z,2.00
2022-12-11T11:03:27.244Z,2.00
2022-12-11T11:06:15.229Z,2.20
2022-12-11T11:08:47.336Z,2.40
2022-12-11T11:11:34.276Z,2.40
2022-12-11T11:14:15.089Z,2.32
2022-12-11T11:16:45.185Z,2.10
2022-12-11T11:19:33.541Z,2.00
2022-12-11T11:22:16.128Z,1.80
2022-12-11T11:24:52.291Z,1.90
2022-12-11T11:28:02.528Z,1.90
2022-12-11T11:30:39.971Z,2.08
2022-12-11T11:33:20.362Z,1.90
2022-12-11T11:35:58.319Z,1.80
2022-12-11T11:38:31.398Z,2.00
2022-12-11T11:41:19.790Z,1.90
2022-12-11T11:43:54.979Z,1.86
2022-12-11T11:46:30.873Z,1.66
2022-12-11T11:49:15.728Z,1.60
2022-12-11T11:51:55.993Z,1.70
2022-12-11T11:54:41.076Z,1.70
2022-12-11T11:57:42.479Z,1.60
2022-12-11T12:00:33.624Z,1.70
2022-12-11T12:03:10.276Z,1.70
2022-12-11T12:05:48.342Z,1.52
2022-12-11T12:08:52.849Z,1.40
2022-12-11T12:11:49.535Z,1.54
2022-12-11T12:14:51.775Z,1.60
2022-12-11T12:17:39.660Z,1.60
2022-12-11T12:20:10.487Z,1.70
2022-12-11T12:22:52.093Z,1.86
2022-12-11T12:25:32.164Z,1.98
2022-12-11T12:28:23.826Z,2.00
2022-12-11T12:31:24.680Z,2.10
2022-12-11T12:34:42.297Z,2.10
2022-12-11T12:37:15.046Z,2.00
2022-12-11T12:40:08.957Z,2.04
2022-12-11T12:42:51.138Z,2.20
2022-12-11T12:45:33.896Z,2.40
2022-12-11T12:48:02.106Z,2.40
2022-12-11T12:50:44.949Z,2.42
2022-12-11T12:53:20.913Z,2.40
2022-12-11T12:55:48.624Z,2.30
2022-12-11T12:58:34.783Z,2.32
2022-12-11T13:01:17.344Z,2.40
2022-12-11T13:03:55.438Z,2.32
2022-12-11T13:06:41.552Z,2.30
2022-12-11T13:09:28.332Z,2.30
2022-12-11T13:11:59.843Z,2.20
2022-12-11T13:14:32.425Z,2.14
2022-12-11T13:17:27.259Z,2.20
2022-12-11T13:20:20.441Z,2.10
2022-12-11T13:23:07.037Z,2.08
2022-12-11T13:25:58.413Z,2.10
2022-12-11T13:28:28.175Z,2.10
2022-12-11T13:31:16.017Z,2.06
2022-12-11T13:33:55.930Z,1.90
2022-12-11T13:36:34.623Z,1.90
2022-12-11T13:39:08.226Z,1.80
2022-12-11T13:41:38.133Z,1.70
2022-12-11T13:44:07.162Z,1.70
2022-12-11T13:46:37.353Z,1.52
2022-12-11T13:49:07.453Z,1.40
2022-12-11T13:51:37.010Z,1.40
2022-12-11T13:54:06.587Z,1.40
2022-12-11T13:56:33.827Z,1.30
2022-12-11T13:59:00.472Z,1.30
2022-12-11T14:01:33.857Z,1.30
2022-12-11T14:04:11.036Z,1.30
2022-12-11T14:06:39.755Z,1.30
2022-12-11T14:09:08.211Z,1.38
2022-12-11T14:11:38.459Z,1.30
2022-12-11T14:14:14.890Z,1.30
2022-12-11T14:16:42.426Z,1.30
2022-12-11T14:19:11.068Z,1.40
2022-12-11T14:21:37.826Z,1.40
2022-12-11T14:24:09.103Z,1.48
2022-12-11T14:26:39.448Z,1.40
2022-12-11T14:29:07.110Z,1.40
2022-12-11T14:31:40.789Z,1.40
2022-12-11T14:34:18.578Z,1.30
2022-12-11T14:36:48.103Z,1.30
2022-12-11T14:39:21.119Z,1.30
2022-12-11T14:42:02.963Z,1.30
2022-12-11T14:44:44.800Z,1.20
2022-12-11T14:47:23.330Z,1.20
2022-12-11T14:50:18.178Z,1.10
2022-12-11T14:53:02.810Z,0.90
2022-12-11T14:55:32.889Z,0.90
2022-12-11T14:58:05.030Z,0.80
2022-12-11T15:00:36.034Z,0.80
2022-12-11T15:03:17.723Z,0.80
2022-12-11T15:05:54.723Z,0.70
2022-12-11T15:08:34.189Z,0.70
2022-12-11T15:11:11.557Z,0.64
2022-12-11T15:13:56.878Z,0.60
2022-12-11T15:16:27.199Z,0.50
2022-12-11T15:18:55.668Z,0.40
2022-12-11T15:21:32.723Z,0.30
2022-12-11T15:24:03.161Z,0.20
2022-12-11T15:26:36.753Z,0.20
2022-12-11T15:29:25.216Z,0.10
2022-12-11T15:32:10.038Z,0.10
2022-12-11T15:34:58.976Z,0.18
2022-12-11T15:37:29.827Z,0.12
2022-12-11T15:39:59.621Z,0.12
2022-12-11T15:42:29.696Z,0.20
2022-12-11T15:44:56.755Z,0.22
2022-12-11T15:47:27.990Z,0.30
2022-12-11T15:50:02.211Z,0.30
2022-12-11T15:52:29.113Z,0.30
2022-12-11T15:54:55.695Z,0.30
2022-12-11T15:57:24.677Z,0.30
2022-12-11T15:59:53.889Z,0.30
2022-12-11T16:02:20.956Z,0.30
2022-12-11T16:04:47.802Z,0.20
2022-12-11T16:07:22.498Z,0.20
2022-12-11T16:09:49.954Z,0.12
2022-12-11T16:12:16.988Z,0.14
2022-12-11T16:14:45.499Z,0.10
2022-12-11T16:17:15.260Z,0.10
2022-12-11T16:19:44.005Z,0.08
2022-12-11T16:22:15.426Z,0.00
2022-12-11T16:24:42.730Z,0.00
2022-12-11T16:27:10.070Z,0.00
2022-12-11T16:29:39.259Z,0.00
2022-12-11T16:32:11.067Z,0.00
2022-12-11T16:34:39.113Z,0.00
2022-12-11T16:37:08.190Z,0.00
2022-12-11T16:39:37.393Z,0.00
2022-12-11T16:42:07.139Z,-0.10
2022-12-11T16:44:33.826Z,-0.06
2022-12-11T16:47:00.465Z,0.00
2022-12-11T16:49:27.034Z,0.00
2022-12-11T16:51:53.594Z,0.00
2022-12-11T16:54:20.234Z,0.00
2022-12-11T16:56:46.820Z,0.02
2022-12-11T16:59:13.428Z,0.10
2022-12-11T17:01:40.767Z,0.10
2022-12-11T17:04:07.772Z,0.10
2022-12-11T17:06:34.424Z,0.10
2022-12-11T17:09:01.205Z,0.10
2022-12-11T17:11:27.806Z,0.10
2022-12-11T17:13:57.088Z,0.12
2022-12-11T17:16:26.274Z,0.20
2022-12-11T17:18:53.527Z,0.20
2022-12-11T17:21:22.244Z,0.20
2022-12-11T17:23:50.952Z,0.10
2022-12-11T17:26:18.410Z,0.10
2022-12-11T17:28:45.405Z,0.10
2022-12-11T17:31:17.269Z,0.02
2022-12-11T17:33:46.458Z,0.00
2022-12-11T17:36:19.534Z,0.06
2022-12-11T17:38:46.379Z,0.10
2022-12-11T17:41:20.512Z,0.10
2022-12-11T17:43:53.546Z,0.10
2022-12-11T17:46:21.977Z,0.10
2022-12-11T17:48:48.911Z,0.10
2022-12-11T17:51:21.801Z,0.10
2022-12-11T17:53:48.466Z,0.00
2022-12-11T17:56:15.428Z,0.08
2022-12-11T17:58:42.250Z,0.02
2022-12-11T18:01:12.375Z,0.10
2022-12-11T18:03:40.843Z,0.10
2022-12-11T18:06:13.126Z,0.10
2022-12-11T18:08:40.144Z,0.00
2022-12-11T18:11:15.125Z,0.00
2022-12-11T18:13:43.639Z,0.00
2022-12-11T18:16:27.809Z,0.00
2022-12-11T18:18:54.777Z,0.00
2022-12-11T18:21:25.949Z,0.08
2022-12-11T18:23:53.838Z,0.00
2022-12-11T18:26:21.175Z,0.00
2022-12-11T18:28:49.244Z,0.00
2022-12-11T18:31:16.499Z,0.00
2022-12-11T18:33:44.306Z,0.00
2022-12-11T18:36:13.567Z,0.00
2022-12-11T18:38:42.028Z,0.00
2022-12-11T18:41:12.224Z,-0.08
2022-12-11T18:43:41.352Z,-0.10
2022-12-11T18:46:10.994Z,-0.10
2022-12-11T18:48:38.282Z,0.00
2022-12-11T18:51:12.479Z,0.00
2022-12-11T18:53:40.211Z,0.00
2022-12-11T18:56:11.000Z,0.10
2022-12-11T18:58:39.625Z,0.10
2022-12-11T19:01:20.133Z,0.10
2022-12-11T19:03:47.366Z,0.10
2022-12-11T19:06:18.562Z,0.10
2022-12-11T19:08:45.973Z,0.18
2022-12-11T19:11:20.313Z,0.20
2022-12-11T19:13:47.803Z,0.12
2022-12-11T19:16:21.204Z,0.20
2022-12-11T19:18:49.464Z,0.20
2022-12-11T19:21:27.196Z,0.20
2022-12-11T19:23:54.704Z,0.10
2022-12-11T19:26:24.143Z,0.00
2022-12-11T19:28:52.888Z,-0.10
2022-12-11T19:31:23.283Z,-0.18
2022-12-11T19:33:50.369Z,-0.20
2022-12-11T19:36:21.445Z,-0.20
2022-12-11T19:38:48.663Z,-0.30
2022-12-11T19:41:19.950Z,-0.30
2022-12-11T19:43:47.163Z,-0.40
2022-12-11T19:46:15.316Z,-0.34
2022-12-11T19:48:43.050Z,-0.34
2022-12-11T19:51:16.409Z,-0.28
2022-12-11T19:53:44.677Z,-0.18
2022-12-11T19:56:13.109Z,-0.20
2022-12-11T19:58:41.768Z,-0.30
2022-12-11T20:01:09.891Z,-0.42
2022-12-11T20:03:38.047Z,-0.44
2022-12-11T20:06:08.259Z,-0.40
2022-12-11T20:08:44.858Z,-0.30
2022-12-11T20:11:17.569Z,-0.30
2022-12-11T20:13:46.498Z,-0.20
2022-12-11T20:16:15.833Z,-0.20
2022-12-11T20:18:42.916Z,-0.14
2022-12-11T20:21:16.419Z,-0.10
2022-12-11T20:23:44.164Z,-0.10
2022-12-11T20:26:17.800Z,-0.02
2022-12-11T20:28:48.042Z,0.00
2022-12-11T20:31:20.492Z,0.00
2022-12-11T20:33:49.483Z,0.00
2022-12-11T20:36:19.282Z,0.00
2022-12-11T20:38:46.143Z,-0.02
2022-12-11T20:41:16.924Z,0.00
2022-12-11T20:43:44.592Z,0.00
2022-12-11T20:46:17.243Z,-0.10
2022-12-11T20:48:45.503Z,-0.10
2022-12-11T20:51:18.590Z,-0.10
2022-12-11T20:53:50.435Z,-0.10
2022-12-11T20:56:19.395Z,-0.10
2022-12-11T20:58:46.475Z,-0.10
2022-12-11T21:01:19.508Z,-0.10
2022-12-11T21:03:46.484Z,-0.10
2022-12-11T21:06:31.208Z,-0.12
2022-12-11T21:09:07.759Z,-0.10
2022-12-11T21:11:34.916Z,-0.20
2022-12-11T21:14:01.465Z,-0.18
2022-12-11T21:16:28.604Z,-0.10
2022-12-11T21:18:57.378Z,-0.16
2022-12-11T21:21:25.769Z,-0.10
2022-12-11T21:23:52.603Z,-0.10
2022-12-11T21:26:19.491Z,-0.10
2022-12-11T21:28:46.161Z,-0.08
2022-12-11T21:31:17.368Z,-0.10
2022-12-11T21:33:44.158Z,-0.10
2022-12-11T21:36:13.556Z,-0.14
2022-12-11T21:38:42.054Z,-0.20
2022-12-11T21:41:13.501Z,-0.10
2022-12-11T21:44:00.418Z,-0.20
2022-12-11T21:46:29.198Z,-0.14
2022-12-11T21:48:55.930Z,-0.12
2022-12-11T21:51:35.904Z,-0.10
2022-12-11T21:54:06.155Z,-0.02
2022-12-11T21:56:33.067Z,0.00
2022-12-11T21:59:01.704Z,0.00
2022-12-11T22:01:34.361Z,0.00
2022-12-11T22:04:01.512Z,0.00
2022-12-11T22:06:28.173Z,0.00
2022-12-11T22:08:54.836Z,0.00
2022-12-11T22:11:27.468Z,0.00
2022-12-11T22:13:55.085Z,0.00
2022-12-11T22:16:21.885Z,0.00
2022-12-11T22:18:48.764Z,0.08
2022-12-11T22:21:16.536Z,0.10
2022-12-11T22:23:44.662Z,0.10
2022-12-11T22:26:18.676Z,0.00
2022-12-11T22:28:45.324Z,0.00
2022-12-11T22:31:14.392Z,-0.10
2022-12-11T22:33:41.317Z,-0.10
2022-12-11T22:36:10.337Z,-0.10
2022-12-11T22:38:37.172Z,-0.10
2022-12-11T22:41:24.608Z,-0.14
2022-12-11T22:43:52.567Z,-0.18
2022-12-11T22:46:22.625Z,-0.18
2022-12-11T22:48:49.630Z,-0.20
2022-12-11T22:51:16.850Z,-0.20
2022-12-11T22:53:43.749Z,-0.24
2022-12-11T22:56:13.103Z,-0.30
2022-12-11T22:58:40.122Z,-0.40
2022-12-11T23:01:14.618Z,-0.40
2022-12-11T23:03:41.523Z,-0.40
2022-12-11T23:06:12.445Z,-0.40
2022-12-11T23:08:40.971Z,-0.50
2022-12-11T23:11:24.930Z,-0.48
2022-12-11T23:13:53.069Z,-0.40
2022-12-11T23:16:22.070Z,-0.40
2022-12-11T23:18:48.789Z,-0.40
2022-12-11T23:21:15.475Z,-0.40
2022-12-11T23:23:42.907Z,-0.40
2022-12-11T23:26:13.082Z,-0.40
2022-12-11T23:28:41.405Z,-0.46
2022-12-11T23:31:08.778Z,-0.40
2022-12-11T23:33:35.361Z,-0.50
2022-12-11T23:36:03.022Z,-0.50
2022-12-11T23:38:29.599Z,-0.50
2022-12-11T23:40:59.774Z,-0.50
2022-12-11T23:43:26.781Z,-0.50
2022-12-11T23:45:53.657Z,-0.60
2022-12-11T23:48:20.456Z,-0.60
2022-12-11T23:50:48.194Z,-0.56
2022-12-11T23:53:15.290Z,-0.60
2022-12-11T23:55:45.607Z,-0.60
2022-12-11T23:58:12.337Z,-0.50
